createdAt,value
2019-04-23T00:01:07.528Z,58.20
2019-04-23T00:03:34.422Z,58.30
2019-04-23T00:06:10.228Z,58.60
2019-04-23T00:08:44.783Z,58.70
2019-04-23T00:11:05.664Z,58.60
2019-04-23T00:16:18.675Z,58.70
2019-04-23T00:18:43.296Z,58.40
2019-04-23T00:21:34.577Z,58.80
2019-04-23T00:24:11.756Z,58.80
2019-04-23T00:26:36.629Z,58.80
2019-04-23T00:29:18.498Z,59.00
2019-04-23T00:31:41.310Z,59.30
2019-04-23T00:34:09.256Z,59.50
2019-04-23T00:36:37.832Z,59.20
2019-04-23T00:39:10.325Z,58.90
2019-04-23T00:44:15.076Z,60.10
2019-04-23T00:46:40.057Z,59.60
2019-04-23T00:51:51.673Z,60.20
2019-04-23T00:54:20.724Z,60.30
2019-04-23T00:59:24.513Z,60.10
2019-04-23T01:01:55.794Z,60.00
2019-04-23T01:04:19.001Z,60.90
2019-04-23T01:06:54.627Z,61.50
2019-04-23T01:09:22.716Z,60.80
2019-04-23T01:12:00.456Z,60.90
2019-04-23T01:14:31.542Z,61.10
2019-04-23T01:16:55.192Z,61.00
2019-04-23T01:19:44.452Z,61.40
2019-04-23T01:21:47.445Z,61.90
2019-04-23T01:24:30.691Z,61.80
2019-04-23T01:27:39.750Z,62.30
2019-04-23T01:30:08.451Z,62.70
2019-04-23T01:32:32.069Z,62.70
2019-04-23T01:35:12.824Z,62.50
2019-04-23T01:37:39.508Z,62.20
2019-04-23T01:40:09.724Z,62.50
2019-04-23T01:42:41.853Z,62.30
2019-04-23T01:45:15.417Z,62.20
2019-04-23T01:47:39.027Z,62.90
2019-04-23T01:50:13.761Z,63.20
2019-04-23T01:52:47.752Z,63.20
2019-04-23T01:55:19.892Z,63.30
2019-04-23T01:57:47.127Z,63.10
2019-04-23T02:00:18.752Z,64.90
2019-04-23T02:02:49.853Z,63.60
2019-04-23T02:05:26.027Z,65.30
2019-04-23T02:07:55.008Z,63.50
2019-04-23T02:10:29.515Z,65.40
2019-04-23T02:12:55.735Z,65.20
2019-04-23T02:15:23.087Z,65.10
2019-04-23T02:18:00.086Z,65.70
2019-04-23T02:25:50.531Z,66.90
2019-04-23T02:28:15.952Z,66.10
2019-04-23T02:33:34.426Z,67.20
2019-04-23T02:38:30.848Z,67.60
2019-04-23T02:41:04.770Z,67.40
2019-04-23T02:48:34.954Z,66.60
2019-04-23T02:50:54.243Z,66.90
2019-04-23T02:58:52.265Z,67.60
2019-04-23T03:01:21.752Z,66.80
2019-04-23T03:03:42.736Z,66.40
2019-04-23T03:11:20.019Z,66.60
2019-04-23T03:21:31.375Z,67.40
2019-04-23T03:24:04.447Z,70.00
2019-04-23T03:27:03.542Z,68.50
2019-04-23T03:29:16.253Z,68.80
2019-04-23T03:35:34.455Z,69.30
2019-04-23T03:37:03.978Z,69.80
2019-04-23T03:39:20.721Z,71.30
2019-04-23T03:41:41.755Z,73.30
2019-04-23T03:44:01.969Z,73.50
2019-04-23T03:46:53.923Z,74.00
2019-04-23T03:49:07.139Z,74.10
2019-04-23T03:51:43.320Z,73.80
2019-04-23T03:59:20.397Z,73.90
2019-04-23T04:02:04.347Z,73.90
2019-04-23T04:07:01.239Z,73.90
2019-04-23T04:11:47.626Z,73.90
2019-04-23T04:14:32.136Z,74.20
2019-04-23T04:22:06.852Z,74.20
2019-04-23T04:24:34.395Z,74.00
2019-04-23T04:27:07.968Z,74.00
2019-04-23T04:29:40.380Z,74.20
2019-04-23T04:32:00.335Z,73.50
2019-04-23T04:34:55.545Z,73.00
2019-04-23T04:39:33.515Z,73.00
2019-04-23T04:42:08.753Z,72.90
2019-04-23T04:44:43.281Z,73.30
2019-04-23T04:47:28.382Z,73.70
2019-04-23T04:52:22.251Z,73.90
2019-04-23T04:54:26.501Z,73.10
2019-04-23T04:57:20.429Z,73.50
2019-04-23T04:59:50.810Z,72.80
2019-04-23T05:02:26.384Z,73.20
2019-04-23T05:04:55.926Z,72.80
2019-04-23T05:07:23.512Z,72.30
2019-04-23T05:13:11.757Z,69.70
2019-04-23T05:17:24.401Z,67.30
2019-04-23T05:19:51.036Z,66.40
2019-04-23T05:22:22.592Z,63.40
2019-04-23T05:24:48.043Z,64.40
2019-04-23T05:27:17.577Z,61.10
2019-04-23T05:30:02.933Z,60.50
2019-04-23T05:32:23.730Z,59.40
2019-04-23T05:34:55.767Z,59.40
2019-04-23T05:37:35.176Z,59.20
2019-04-23T05:40:00.493Z,58.80
2019-04-23T05:42:26.099Z,58.20
2019-04-23T05:47:33.239Z,57.30
2019-04-23T05:50:09.420Z,57.00
2019-04-23T05:52:38.097Z,56.50
2019-04-23T05:55:07.620Z,56.00
2019-04-23T05:57:34.499Z,55.40
2019-04-23T06:00:13.863Z,55.90
2019-04-23T06:02:45.358Z,57.00
2019-04-23T06:05:08.858Z,57.30
2019-04-23T06:07:43.917Z,57.40
2019-04-23T06:10:13.267Z,57.40
2019-04-23T06:12:43.532Z,57.30
2019-04-23T06:15:11.480Z,57.60
2019-04-23T06:17:52.625Z,58.10
2019-04-23T06:20:22.506Z,58.40
2019-04-23T06:22:51.053Z,58.50
2019-04-23T06:25:30.818Z,58.30
2019-04-23T06:27:57.466Z,59.10
2019-04-23T06:30:25.715Z,59.60
2019-04-23T06:32:55.163Z,59.60
2019-04-23T06:35:22.556Z,59.90
2019-04-23T06:40:27.680Z,60.30
2019-04-23T06:43:01.017Z,60.50
2019-04-23T06:45:30.650Z,59.90
2019-04-23T06:48:09.007Z,59.00
2019-04-23T06:50:35.530Z,60.90
2019-04-23T06:53:01.913Z,61.00
2019-04-23T06:55:52.726Z,61.50
2019-04-23T06:58:25.441Z,61.30
2019-04-23T07:00:59.213Z,61.80
2019-04-23T07:03:33.997Z,62.00
2019-04-23T07:06:19.180Z,61.50
2019-04-23T07:11:23.627Z,61.40
2019-04-23T07:13:55.008Z,60.30
2019-04-23T07:16:19.241Z,59.50
2019-04-23T07:18:47.100Z,59.50
2019-04-23T07:26:30.418Z,57.60
2019-04-23T07:28:53.336Z,58.00
2019-04-23T07:31:44.492Z,57.20
2019-04-23T07:34:01.078Z,57.50
2019-04-23T07:36:30.852Z,56.70
2019-04-23T07:41:59.397Z,56.10
2019-04-23T07:47:18.699Z,55.30
2019-04-23T07:49:50.571Z,55.50
2019-04-23T07:52:20.293Z,54.90
2019-04-23T07:54:45.705Z,54.10
2019-04-23T07:57:29.202Z,54.10
2019-04-23T07:59:51.742Z,53.30
2019-04-23T08:02:21.858Z,53.00
2019-04-23T08:05:04.894Z,53.30
2019-04-23T08:07:23.123Z,53.60
2019-04-23T08:09:53.362Z,52.40
2019-04-23T08:12:25.586Z,51.50
2019-04-23T08:14:55.218Z,51.80
2019-04-23T08:17:22.426Z,50.50
2019-04-23T08:22:28.623Z,50.60
2019-04-23T08:27:35.318Z,52.50
2019-04-23T08:30:18.000Z,51.80
2019-04-23T08:32:29.203Z,51.00
2019-04-23T08:35:10.947Z,51.90
2019-04-23T08:37:54.457Z,50.60
2019-04-23T08:40:14.704Z,50.50
2019-04-23T08:45:29.782Z,50.50
2019-04-23T08:48:09.810Z,50.00
2019-04-23T08:53:17.932Z,50.10
2019-04-23T08:55:46.342Z,50.50
2019-04-23T08:58:14.190Z,49.00
2019-04-23T09:00:52.619Z,49.50
2019-04-23T09:03:21.986Z,49.40
2019-04-23T09:10:56.808Z,48.90
2019-04-23T09:18:22.965Z,49.00
2019-04-23T09:20:52.904Z,48.80
2019-04-23T09:23:29.380Z,49.80
2019-04-23T09:25:55.879Z,49.30
2019-04-23T09:28:38.651Z,49.00
2019-04-23T09:31:05.205Z,48.60
2019-04-23T09:33:51.751Z,49.30
2019-04-23T09:36:22.412Z,47.10
2019-04-23T09:38:52.481Z,48.00
2019-04-23T09:41:28.041Z,47.00
2019-04-23T09:44:14.574Z,47.50
2019-04-23T09:46:36.115Z,47.60
2019-04-23T09:49:15.219Z,48.50
2019-04-23T09:54:18.589Z,48.50
2019-04-23T09:56:44.341Z,47.90
2019-04-23T10:01:35.708Z,48.40
2019-04-23T10:04:03.966Z,49.00
2019-04-23T10:06:26.516Z,49.30
2019-04-23T10:08:56.223Z,49.60
2019-04-23T10:11:26.072Z,49.20
2019-04-23T10:13:56.580Z,48.10
2019-04-23T10:16:30.105Z,46.90
2019-04-23T10:18:57.536Z,47.70
2019-04-23T10:21:26.957Z,48.40
2019-04-23T10:23:57.089Z,48.00
2019-04-23T10:26:28.095Z,49.00
2019-04-23T10:29:02.312Z,48.70
2019-04-23T10:31:33.361Z,49.70
2019-04-23T10:34:04.426Z,50.30
2019-04-23T10:36:34.605Z,51.00
2019-04-23T10:39:17.106Z,51.60
2019-04-23T10:41:42.604Z,50.90
2019-04-23T10:44:15.234Z,50.70
2019-04-23T10:47:11.532Z,49.90
2019-04-23T10:52:19.103Z,49.70
2019-04-23T10:54:46.943Z,49.50
2019-04-23T10:57:16.702Z,49.90
2019-04-23T11:00:04.402Z,49.90
2019-04-23T11:02:43.511Z,50.20
2019-04-23T11:05:00.390Z,50.20
2019-04-23T11:25:26.586Z,52.10
2019-04-23T11:27:54.864Z,51.70
2019-04-23T11:33:05.108Z,51.90
2019-04-23T11:38:34.834Z,52.10
2019-04-23T11:43:14.719Z,52.30
2019-04-23T11:45:50.802Z,52.00
2019-04-23T11:48:33.290Z,52.30
2019-04-23T11:51:05.064Z,52.30
2019-04-23T11:53:07.169Z,52.40
2019-04-23T11:58:16.569Z,53.50
2019-04-23T12:00:49.237Z,52.60
2019-04-23T12:03:07.643Z,52.60
2019-04-23T12:11:46.858Z,51.90
2019-04-23T12:13:52.766Z,52.20
2019-04-23T12:16:20.557Z,53.30
2019-04-23T12:18:51.419Z,52.60
2019-04-23T12:21:33.077Z,52.30
2019-04-23T12:23:57.192Z,52.30
2019-04-23T12:26:29.849Z,52.80
2019-04-23T12:31:31.492Z,53.30
2019-04-23T12:34:01.050Z,54.00
2019-04-23T12:36:37.713Z,53.40
2019-04-23T12:39:05.364Z,53.70
2019-04-23T12:41:42.094Z,53.70
2019-04-23T12:44:10.926Z,53.80
2019-04-23T12:46:48.749Z,54.40
2019-04-23T12:49:30.357Z,54.40
2019-04-23T12:51:50.258Z,54.10
2019-04-23T12:54:20.039Z,53.70
2019-04-23T12:56:49.111Z,53.90
2019-04-23T12:59:14.685Z,53.80
2019-04-23T13:01:48.926Z,54.30
2019-04-23T13:04:22.196Z,54.30
2019-04-23T13:06:44.094Z,54.10
2019-04-23T13:09:38.291Z,54.10
2019-04-23T13:11:52.877Z,53.90
2019-04-23T13:14:29.427Z,54.50
2019-04-23T13:17:00.735Z,54.40
2019-04-23T13:19:37.418Z,54.10
2019-04-23T13:24:37.454Z,54.20
2019-04-23T13:27:15.827Z,54.00
2019-04-23T13:29:47.878Z,54.20
2019-04-23T13:32:17.314Z,53.90
2019-04-23T13:34:49.946Z,53.80
2019-04-23T13:37:19.046Z,53.80
2019-04-23T13:42:22.460Z,53.90
2019-04-23T13:44:49.946Z,54.20
2019-04-23T13:47:28.231Z,53.50
2019-04-23T13:49:55.263Z,52.90
2019-04-23T13:52:50.526Z,54.30
2019-04-23T13:55:04.518Z,54.50
2019-04-23T14:00:02.526Z,54.30
2019-04-23T14:02:35.733Z,54.40
2019-04-23T14:07:34.647Z,54.20
2019-04-23T14:10:06.075Z,54.30
2019-04-23T14:12:32.233Z,54.20
2019-04-23T14:17:48.953Z,54.60
2019-04-23T14:20:07.153Z,54.40
2019-04-23T14:25:10.186Z,54.50
2019-04-23T14:27:52.126Z,54.50
2019-04-23T14:32:46.950Z,54.60
2019-04-23T14:38:01.637Z,54.90
2019-04-23T14:42:56.770Z,54.50
2019-04-23T14:46:23.067Z,54.60
2019-04-23T14:48:03.976Z,53.70
2019-04-23T14:53:20.255Z,54.20
2019-04-23T14:55:58.016Z,54.30
2019-04-23T15:01:09.863Z,54.40
2019-04-23T15:03:40.305Z,54.50
2019-04-23T15:06:10.445Z,54.80
2019-04-23T15:08:32.083Z,55.10
2019-04-23T15:13:28.379Z,55.30
2019-04-23T15:16:11.484Z,55.40
2019-04-23T15:18:44.496Z,55.30
2019-04-23T15:24:00.210Z,55.60
2019-04-23T15:27:22.378Z,55.30
2019-04-23T15:28:37.257Z,55.60
2019-04-23T15:34:15.372Z,55.50
2019-04-23T15:39:11.811Z,55.70
2019-04-23T15:44:13.211Z,54.90
2019-04-23T15:46:48.960Z,54.60
2019-04-23T15:54:13.586Z,54.50
2019-04-23T15:56:45.946Z,54.90
2019-04-23T16:01:37.584Z,55.00
2019-04-23T16:03:47.251Z,54.30
2019-04-23T16:06:21.208Z,54.30
2019-04-23T16:09:08.060Z,53.60
2019-04-23T16:11:51.784Z,53.60
2019-04-23T16:19:25.813Z,53.00
2019-04-23T16:29:32.752Z,53.50
2019-04-23T16:32:08.469Z,53.50
2019-04-23T16:34:34.084Z,53.50
2019-04-23T16:37:15.360Z,53.70
2019-04-23T16:39:49.307Z,53.90
2019-04-23T16:42:17.533Z,53.80
2019-04-23T16:44:59.499Z,53.80
2019-04-23T16:47:18.638Z,54.00
2019-04-23T16:50:03.171Z,54.20
2019-04-23T16:52:21.577Z,54.20
2019-04-23T16:54:54.740Z,54.60
2019-04-23T16:57:35.698Z,54.80
2019-04-23T17:00:09.689Z,54.90
2019-04-23T17:02:28.028Z,54.80
2019-04-23T17:05:04.743Z,54.90
2019-04-23T17:07:22.151Z,54.80
2019-04-23T17:12:52.939Z,55.10
2019-04-23T17:15:05.379Z,55.10
2019-04-23T17:17:25.013Z,55.50
2019-04-23T17:20:08.886Z,55.60
2019-04-23T17:22:31.433Z,55.70
2019-04-23T17:25:13.407Z,55.80
2019-04-23T17:27:42.476Z,55.70
2019-04-23T17:30:11.479Z,55.60
2019-04-23T17:32:53.080Z,56.20
2019-04-23T17:35:27.438Z,56.40
2019-04-23T17:38:00.428Z,56.60
2019-04-23T17:40:42.549Z,56.70
2019-04-23T17:43:00.211Z,57.20
2019-04-23T17:48:07.139Z,57.50
2019-04-23T17:50:45.548Z,57.50
2019-04-23T17:55:54.251Z,58.20
2019-04-23T17:58:26.816Z,57.80
2019-04-23T18:01:04.031Z,58.50
2019-04-23T18:03:25.768Z,58.60
2019-04-23T18:06:08.793Z,59.00
2019-04-23T18:08:29.081Z,58.60
2019-04-23T18:11:05.944Z,58.70
2019-04-23T18:13:27.672Z,58.80
2019-04-23T18:16:08.449Z,59.20
2019-04-23T18:18:39.264Z,59.20
2019-04-23T18:21:13.213Z,59.40
2019-04-23T18:23:42.449Z,59.60
2019-04-23T18:26:22.327Z,59.90
2019-04-23T18:28:58.765Z,60.20
2019-04-23T18:31:20.110Z,60.50
2019-04-23T18:36:22.575Z,61.30
2019-04-23T18:39:06.344Z,61.30
2019-04-23T18:41:41.614Z,61.50
2019-04-23T18:44:05.831Z,61.90
2019-04-23T18:46:36.958Z,62.20
2019-04-23T18:48:59.915Z,62.40
2019-04-23T18:51:41.805Z,62.60
2019-04-23T18:54:05.427Z,63.50
2019-04-23T18:56:59.712Z,63.40
2019-04-23T18:59:10.710Z,63.40
2019-04-23T19:01:48.728Z,63.70
2019-04-23T19:04:55.003Z,63.90
2019-04-23T19:07:05.413Z,64.10
2019-04-23T19:10:12.264Z,64.30
2019-04-23T19:14:56.313Z,64.80
2019-04-23T19:19:54.998Z,65.20
2019-04-23T19:22:47.226Z,65.40
2019-04-23T19:24:53.389Z,65.70
2019-04-23T19:27:37.006Z,66.00
2019-04-23T19:30:18.872Z,66.30
2019-04-23T19:32:33.585Z,66.30
2019-04-23T19:35:07.057Z,66.40
2019-04-23T19:37:49.128Z,66.70
2019-04-23T19:40:03.388Z,67.30
2019-04-23T19:42:44.615Z,67.50
2019-04-23T19:45:04.898Z,67.70
2019-04-23T19:48:00.195Z,68.00
2019-04-23T19:50:15.150Z,68.30
2019-04-23T19:53:14.366Z,68.50
2019-04-23T19:55:29.827Z,68.70
2019-04-23T19:57:56.514Z,68.80
2019-04-23T20:00:20.167Z,69.50
2019-04-23T20:03:13.638Z,70.70
2019-04-23T20:05:24.696Z,72.20
2019-04-23T20:07:56.664Z,72.80
2019-04-23T20:10:26.615Z,73.60
2019-04-23T20:12:49.952Z,75.20
2019-04-23T20:15:31.961Z,73.70
2019-04-23T20:18:05.226Z,72.80
2019-04-23T20:28:14.899Z,73.80
2019-04-23T20:31:04.110Z,73.30
2019-04-23T20:36:03.707Z,72.80
2019-04-23T20:40:56.986Z,73.30
2019-04-23T20:43:23.678Z,73.80
2019-04-23T20:45:58.879Z,72.90
2019-04-23T20:48:37.805Z,73.10
2019-04-23T20:50:58.825Z,73.20
2019-04-23T20:53:30.988Z,74.30
2019-04-23T20:56:07.219Z,74.60
2019-04-23T20:58:55.617Z,74.70
2019-04-23T21:03:49.075Z,73.80
2019-04-23T21:06:18.865Z,73.50
2019-04-23T21:09:10.035Z,73.50
2019-04-23T21:11:25.035Z,73.60
2019-04-23T21:14:09.424Z,73.60
2019-04-23T21:19:10.612Z,73.80
2019-04-23T21:21:27.525Z,73.90
2019-04-23T21:23:53.231Z,74.00
2019-04-23T21:26:32.470Z,74.30
2019-04-23T21:29:02.598Z,74.40
2019-04-23T21:31:43.822Z,74.40
2019-04-23T21:36:50.950Z,74.80
2019-04-23T21:39:47.995Z,74.70
2019-04-23T21:42:14.820Z,74.80
2019-04-23T21:44:45.623Z,75.00
2019-04-23T21:47:42.581Z,75.10
2019-04-23T21:49:59.443Z,75.20
2019-04-23T21:52:20.499Z,75.20
2019-04-23T21:54:49.608Z,76.10
2019-04-23T21:57:29.518Z,75.50
2019-04-23T22:02:47.142Z,75.70
2019-04-23T22:05:01.040Z,75.80
2019-04-23T22:07:35.679Z,75.70
2019-04-23T22:10:05.937Z,75.70
2019-04-23T22:12:23.135Z,75.80
2019-04-23T22:14:58.781Z,75.70
2019-04-23T22:17:33.079Z,75.90
2019-04-23T22:22:41.844Z,76.10
2019-04-23T22:25:04.449Z,76.10
2019-04-23T22:27:41.134Z,76.10
2019-04-23T22:30:02.966Z,75.90
2019-04-23T22:32:49.733Z,76.00
2019-04-23T22:35:08.007Z,76.40
2019-04-23T22:37:42.818Z,76.70
2019-04-23T22:40:10.218Z,76.30
2019-04-23T22:43:01.311Z,76.70
2019-04-23T22:50:18.596Z,76.70
2019-04-23T22:52:56.813Z,76.80
2019-04-23T22:55:12.703Z,76.80
2019-04-23T23:00:34.037Z,76.90
2019-04-23T23:03:13.332Z,76.80
2019-04-23T23:05:53.911Z,76.90
2019-04-23T23:08:11.418Z,77.30
2019-04-23T23:10:37.347Z,77.40
2019-04-23T23:15:42.057Z,77.00
2019-04-23T23:18:14.074Z,77.40
2019-04-23T23:20:51.219Z,77.20
2019-04-23T23:23:19.482Z,77.30
2019-04-23T23:25:51.561Z,77.30
2019-04-23T23:28:20.129Z,77.50
2019-04-23T23:30:58.344Z,78.10
2019-04-23T23:33:19.240Z,78.10
2019-04-23T23:35:53.548Z,78.00
2019-04-23T23:38:29.256Z,77.40
2019-04-23T23:41:03.732Z,77.40
2019-04-23T23:43:24.160Z,77.50
2019-04-23T23:46:03.610Z,77.50
2019-04-23T23:48:28.041Z,77.60
2019-04-23T23:51:09.972Z,77.80
2019-04-23T23:53:39.771Z,78.30
2019-04-23T23:56:11.250Z,78.60
2019-04-23T23:58:48.239Z,78.90
